Time;durP1;ratioP1;P1;durP2;ratioP2;P2;SDS_P1;SDS_P2;PMS_P1;PMS_P2;Temp;Humidity;BMP_temperature;BMP_pressure;BME280_temperature;BME280_humidity;BME280_pressure;Samples;Min_cycle;Max_cycle;Signal;HPM_P1;HPM_P2
2023/09/29 00:00:17;;;;;;;;;;;;;;;15.82;100.00;101899.06;4966018;28;19918;-76
2023/09/29 00:02:42;;;;;;;;;;;;;;;15.87;100.00;101892.19;4965489;28;19922;-76
2023/09/29 00:05:09;;;;;;;;;;;;;;;16.08;100.00;101940.66;4964969;28;19926;-77
2023/09/29 00:07:34;;;;;;;;;;;;;;;15.90;100.00;101965.66;4967830;28;19922;-76
2023/09/29 00:10:00;;;;;;;;;;;;;;;15.87;100.00;101932.75;4966934;28;19980;-77
2023/09/29 00:12:25;;;;;;;;;;;;;;;15.85;100.00;101930.25;4967082;28;20021;-76
2023/09/29 00:14:52;;;;;;;;;;;;;;;15.92;100.00;101928.41;4973170;28;19989;-76
2023/09/29 00:17:17;;;;;;;;;;;;;;;16.07;100.00;101946.31;4967158;28;19918;-77
2023/09/29 00:19:42;;;;;;;;;;;;;;;15.91;100.00;101945.69;4969706;28;19918;-77
2023/09/29 00:22:09;;;;;;;;;;;;;;;15.93;100.00;101932.75;4965730;28;20668;-76
2023/09/29 00:24:34;;;;;;;9.90;3.10;;;;;;;15.96;100.00;101926.94;4968407;28;19925;-77
2023/09/29 00:27:00;;;;;;;;;;;;;;;15.91;100.00;101910.50;4965861;28;20757;-77
2023/09/29 00:29:25;;;;;;;;;;;;;;;15.82;100.00;101872.00;4965559;28;20013;-77
2023/09/29 00:31:50;;;;;;;;;;;;;;;16.03;100.00;101851.19;4966373;28;20297;-77
2023/09/29 00:34:15;;;;;;;;;;;;;;;15.95;100.00;101863.03;4969651;28;19918;-76
2023/09/29 00:36:42;;;;;;;;;;;;;;;15.90;100.00;101862.81;4985578;28;19915;-77
2023/09/29 00:39:11;;;;;;;;;;;;;;;15.90;100.00;101849.31;4968222;28;19944;-77
2023/09/29 00:41:37;;;;;;;;;;;;;;;15.88;100.00;101832.47;4967737;28;20292;-76
2023/09/29 00:44:03;;;;;;;13.70;4.17;;;;;;;15.63;100.00;101780.03;4969347;28;19921;-77
2023/09/29 00:46:29;;;;;;;18.95;4.80;;;;;;;15.59;100.00;101791.25;4970428;28;20223;-77
2023/09/29 00:48:55;;;;;;;;;;;;;;;15.84;100.00;101779.81;4966967;28;20444;-76
2023/09/29 00:51:21;;;;;;;;;;;;;;;15.95;100.00;101765.63;4966028;28;20056;-76
2023/09/29 00:53:48;;;;;;;;;;;;;;;15.94;100.00;101772.09;4964590;28;20284;-76
2023/09/29 00:56:13;;;;;;;;;;;;;;;16.08;100.00;101774.75;4968038;28;20388;-77
2023/09/29 00:58:39;;;;;;;14.20;3.80;;;;;;;16.12;100.00;101784.13;4967092;28;20134;-77
2023/09/29 01:01:07;;;;;;;;;;;;;;;16.04;100.00;101798.72;4964774;28;20208;-76
2023/09/29 01:03:32;;;;;;;;;;;;;;;16.21;100.00;101801.78;4964331;28;19918;-77
2023/09/29 01:05:58;;;;;;;;;;;;;;;16.10;100.00;101834.91;4963611;28;21747;-77
2023/09/29 01:08:23;;;;;;;;;;;;;;;16.17;100.00;101846.56;4967688;28;19960;-77
2023/09/29 01:10:49;;;;;;;;;;;;;;;16.09;100.00;101849.50;4967425;28;19925;-77
2023/09/29 01:13:15;;;;;;;;;;;;;;;16.21;100.00;101826.16;4965302;28;19949;-77
2023/09/29 01:15:40;;;;;;;;;;;;;;;16.14;100.00;101834.31;4967480;28;19918;-77
2023/09/29 01:18:11;;;;;;;;;;;;;;;16.13;100.00;101848.84;4962559;28;20306;-77
2023/09/29 01:20:40;;;;;;;;;;;;;;;16.23;100.00;101840.31;4968325;28;20324;-77
2023/09/29 01:23:05;;;;;;;;;;;;;;;16.12;100.00;101828.25;4964586;28;19918;-77
2023/09/29 01:25:32;;;;;;;;;;;;;;;16.26;100.00;101848.00;4966166;28;20356;-77
2023/09/29 01:27:58;;;;;;;;;;;;;;;16.26;100.00;101894.03;4967140;28;20415;-77
2023/09/29 01:30:25;;;;;;;;;;;;;;;16.26;100.00;101907.56;4967200;28;19922;-77
2023/09/29 01:32:51;;;;;;;;;;;;;;;16.21;100.00;101924.44;4966329;28;19914;-77
2023/09/29 01:35:17;;;;;;;;;;;;;;;16.24;100.00;101907.78;4964455;28;19925;-77
2023/09/29 01:37:49;;;;;;;;;;;;;;;16.24;100.00;101909.66;4968910;28;19918;-77
2023/09/29 01:40:14;;;;;;;;;;;;;;;16.17;100.00;101893.44;4968263;28;20424;-77
2023/09/29 01:42:43;;;;;;;;;;;;;;;16.21;100.00;101885.72;4967222;28;20052;-77
2023/09/29 01:45:10;;;;;;;;;;;;;;;16.28;100.00;101913.59;4966203;28;20191;-77
2023/09/29 01:47:36;;;;;;;;;;;;;;;16.29;100.00;101947.75;4965360;28;20001;-77
2023/09/29 01:50:01;;;;;;;;;;;;;;;16.29;100.00;101964.00;4965964;28;20357;-77
2023/09/29 01:52:26;;;;;;;;;;;;;;;16.41;100.00;101994.81;4970649;28;19969;-76
2023/09/29 01:54:55;;;;;;;;;;;;;;;16.38;100.00;102011.47;4966322;28;19949;-76
2023/09/29 01:57:20;;;;;;;;;;;;;;;16.43;100.00;102048.75;4965173;28;19913;-76
2023/09/29 01:59:45;;;;;;;;;;;;;;;16.44;100.00;102070.22;4964472;28;19920;-77
2023/09/29 02:02:10;;;;;;;;;;;;;;;16.41;100.00;102097.72;4967415;28;19918;-77
2023/09/29 02:04:36;;;;;;;;;;;;;;;16.37;100.00;102130.81;4964772;28;19953;-77
2023/09/29 02:07:01;;;;;;;;;;;;;;;16.45;100.00;102117.91;4966453;28;19914;-76
2023/09/29 02:09:27;;;;;;;;;;;;;;;16.35;100.00;102092.28;4966866;28;19918;-76
2023/09/29 02:11:54;;;;;;;;;;;;;;;16.33;100.00;102067.28;4964350;28;20661;-77
2023/09/29 02:14:20;;;;;;;;;;;;;;;16.20;100.00;102000.41;4964399;28;19914;-77
2023/09/29 02:16:48;;;;;;;;;;;;;;;16.34;100.00;101999.38;4962226;28;19940;-77
2023/09/29 02:19:13;;;;;;;;;;;;;;;16.39;100.00;101985.22;4964336;28;19933;-77
2023/09/29 02:21:40;;;;;;;;;;;;;;;16.41;100.00;102024.59;4961515;28;19914;-76
2023/09/29 02:24:07;;;;;;;;;;;;;;;16.45;100.00;102006.88;4964338;28;19925;-77
2023/09/29 02:26:34;;;;;;;;;;;;;;;16.40;100.00;102020.22;4967343;28;19910;-77
2023/09/29 02:28:59;;;;;;;;;;;;;;;16.36;100.00;102032.50;4963079;28;20016;-76
2023/09/29 02:31:26;;;;;;;;;;;;;;;16.41;100.00;102027.31;4961028;28;20028;-77
2023/09/29 02:33:53;;;;;;;;;;;;;;;16.35;100.00;102014.59;4965948;28;19913;-77
2023/09/29 02:36:19;;;;;;;18.10;4.40;;;;;;;15.75;100.00;101917.16;4966019;28;20337;-76
2023/09/29 02:38:45;;;;;;;13.13;3.60;;;;;;;15.97;100.00;101925.91;4964011;28;20544;-76
2023/09/29 02:41:10;;;;;;;11.93;3.23;;;;;;;15.89;100.00;101868.47;4963728;28;20576;-77
2023/09/29 02:43:37;;;;;;;10.90;4.15;;;;;;;16.36;100.00;101937.75;4963861;28;20343;-77
2023/09/29 02:46:02;;;;;;;;;;;;;;;16.33;100.00;101948.16;4964895;28;19977;-76
2023/09/29 02:48:27;;;;;;;;;;;;;;;16.27;100.00;101937.13;4963745;28;19922;-77
2023/09/29 02:50:53;;;;;;;;;;;;;;;16.26;100.00;101915.69;4964397;28;20381;-76
2023/09/29 02:53:18;;;;;;;;;;;;;;;16.30;100.00;101924.22;4961102;28;19966;-76
2023/09/29 02:55:46;;;;;;;;;;;;;;;16.30;100.00;101916.94;4965937;28;20297;-76
2023/09/29 02:58:12;;;;;;;;;;;;;;;16.23;100.00;101916.13;4963169;28;19914;-76
2023/09/29 03:00:39;;;;;;;;;;;;;;;16.25;100.00;101882.34;4965763;28;19925;-77
2023/09/29 03:03:04;;;;;;;;;;;;;;;16.23;100.00;101880.94;4966797;28;20433;-77
2023/09/29 03:05:30;;;;;;;;;;;;;;;16.24;100.00;101886.09;4978372;28;19914;-76
2023/09/29 03:07:55;;;;;;;;;;;;;;;16.25;100.00;101886.94;4969950;28;19918;-77
2023/09/29 03:10:20;;;;;;;;;;;;;;;16.21;100.00;101843.22;4965280;28;20389;-76
2023/09/29 03:12:46;;;;;;;;;;;;;;;16.24;100.00;101847.38;4969427;28;19937;-77
2023/09/29 03:15:15;;;;;;;;;;;;;;;16.29;100.00;101866.53;4971423;28;20010;-77
2023/09/29 03:17:41;;;;;;;;;;;;;;;16.30;100.00;101889.03;4967536;28;19921;-77
2023/09/29 03:20:10;;;;;;;;;;;;;;;16.21;100.00;101886.53;4964660;28;19922;-76
2023/09/29 03:22:38;;;;;;;;;;;;;;;16.28;100.00;101889.22;4963009;28;19918;-77
2023/09/29 03:25:04;;;;;;;;;;;;;;;16.26;100.00;101888.63;4965258;28;19921;-77
2023/09/29 03:27:29;;;;;;;;;;;;;;;16.30;100.00;101873.59;4966321;28;20032;-77
2023/09/29 03:29:54;;;;;;;;;;;;;;;16.27;100.00;101882.16;4966932;28;19914;-77
2023/09/29 03:32:20;;;;;;;;;;;;;;;16.31;100.00;101871.72;4969325;28;19949;-76
2023/09/29 03:34:45;;;;;;;;;;;;;;;16.35;100.00;101864.88;4967659;28;20022;-76
2023/09/29 03:37:10;;;;;;;;;;;;;;;16.21;100.00;101834.28;4968210;28;19914;-77
2023/09/29 03:39:36;;;;;;;;;;;;;;;16.23;100.00;101769.94;4971046;28;19922;-76
2023/09/29 03:42:01;;;;;;;;;;;;;;;16.20;100.00;101729.75;4967446;28;19917;-77
2023/09/29 03:44:27;;;;;;;;;;;;;;;16.25;100.00;101690.16;4967887;28;19952;-76
2023/09/29 03:46:53;;;;;;;;;;;;;;;16.18;100.00;101653.34;4966534;28;19953;-77
2023/09/29 03:49:19;;;;;;;;;;;;;;;16.10;100.00;101600.28;4966593;28;19921;-77
2023/09/29 03:51:44;;;;;;;;;;;;;;;16.12;100.00;101590.09;4969696;28;19945;-77
2023/09/29 03:54:10;;;;;;;;;;;;;;;16.13;100.00;101536.78;4970688;28;19964;-77
2023/09/29 03:56:35;;;;;;;;;;;;;;;16.12;100.00;101521.63;4970353;28;19918;-77
2023/09/29 03:59:00;;;;;;;;;;;;;;;16.10;100.00;101502.06;4965008;28;19918;-76
2023/09/29 04:01:27;;;;;;;;;;;;;;;16.08;100.00;101491.44;4969138;28;19914;-77
2023/09/29 04:03:53;;;;;;;;;;;;;;;16.16;100.00;101474.09;4969021;28;19913;-76
2023/09/29 04:06:19;;;;;;;;;;;;;;;16.08;100.00;101482.50;4968268;28;20328;-77
2023/09/29 04:08:44;;;;;;;;;;;;;;;16.27;100.00;101481.50;4969459;28;19920;-77
2023/09/29 04:11:10;;;;;;;;;;;;;;;16.19;100.00;101509.69;4967579;28;19918;-76
2023/09/29 04:13:36;;;;;;;;;;;;;;;16.16;100.00;101504.69;4967237;28;20001;-77
2023/09/29 04:16:04;;;;;;;;;;;;;;;16.10;100.00;101494.75;4978953;28;19997;-77
2023/09/29 04:18:30;;;;;;;;;;;;;;;15.99;100.00;101468.41;4969783;28;19938;-77
2023/09/29 04:20:55;;;;;;;;;;;;;;;16.04;100.00;101446.94;4969902;28;20440;-77
2023/09/29 04:23:21;;;;;;;;;;;;;;;16.25;100.00;101443.00;4969683;28;20005;-76
2023/09/29 04:25:46;;;;;;;;;;;;;;;16.02;100.00;101452.53;4969703;28;19988;-77
2023/09/29 04:28:12;;;;;;;;;;;;;;;15.91;100.00;101426.22;4968270;28;19922;-76
2023/09/29 04:30:37;;;;;;;;;;;;;;;15.88;100.00;101398.75;4964055;28;20025;-77
2023/09/29 04:33:02;;;;;;;;;;;;;;;15.84;100.00;101381.34;4982287;28;19929;-77
2023/09/29 04:35:28;;;;;;;;;;;;;;;15.90;100.00;101354.22;4967299;28;20347;-77
2023/09/29 04:37:53;;;;;;;;;;;;;;;16.05;100.00;101351.16;4968637;28;19918;-77
2023/09/29 04:40:19;;;;;;;;;;;;;;;15.95;100.00;101365.22;4966928;28;19980;-76
2023/09/29 04:42:45;;;;;;;;;;;;;;;15.99;100.00;101352.88;4967911;28;20408;-77
2023/09/29 04:45:10;;;;;;;;;;;;;;;16.08;100.00;101341.78;4966742;28;19917;-77
2023/09/29 04:47:35;;;;;;;;;;;;;;;16.07;100.00;101348.25;4965304;28;19914;-76
2023/09/29 04:50:01;;;;;;;;;;;;;;;16.00;100.00;101365.38;4969571;28;19975;-77
2023/09/29 04:52:26;;;;;;;;;;;;;;;16.02;100.00;101347.03;4966889;28;19965;-77
2023/09/29 04:54:52;;;;;;;;;;;;;;;16.04;100.00;101360.34;4969434;28;20447;-77
2023/09/29 04:57:17;;;;;;;;;;;;;;;16.09;100.00;101368.63;4968407;28;20332;-77
2023/09/29 04:59:42;;;;;;;;;;;;;;;16.14;100.00;101365.25;4967788;28;19918;-77
2023/09/29 05:02:08;;;;;;;;;;;;;;;16.17;100.00;101379.19;4970694;28;19922;-77
2023/09/29 05:04:33;;;;;;;;;;;;;;;16.20;100.00;101388.69;4969237;28;19914;-77
2023/09/29 05:06:58;;;;;;;;;;;;;;;16.21;100.00;101393.09;4970273;28;19968;-77
2023/09/29 05:09:24;;;;;;;;;;;;;;;16.27;100.00;101393.00;4969027;28;19910;-77
2023/09/29 05:11:49;;;;;;;;;;;;;;;16.25;100.00;101422.19;4969154;28;19925;-77
2023/09/29 05:14:15;;;;;;;;;;;;;;;16.29;100.00;101411.75;4973851;28;19928;-76
2023/09/29 05:22:22;;;;;;;;;;;;;;;16.33;100.00;101429.19;4948135;28;20000;-75
2023/09/29 05:24:47;;;;;;;;;;;;;;;16.37;100.00;101426.88;4963677;28;19914;-76
2023/09/29 05:27:13;;;;;;;;;;;;;;;16.43;100.00;101423.25;4963161;28;19923;-75
2023/09/29 05:29:38;;;;;;;;;;;;;;;16.42;100.00;101422.44;4962935;28;19976;-75
2023/09/29 05:32:03;;;;;;;;;;;;;;;16.44;100.00;101417.63;4964503;28;19944;-77
2023/09/29 05:34:29;;;;;;;;;;;;;;;16.44;100.00;101431.16;4963746;28;19914;-75
2023/09/29 05:36:54;;;;;;;;;;;;;;;16.46;100.00;101417.41;4961731;28;19977;-75
2023/09/29 05:39:19;;;;;;;;;;;;;;;16.45;100.00;101407.63;4962797;28;19917;-75
2023/09/29 05:41:45;;;;;;;;;;;;;;;16.45;100.00;101394.09;4964804;28;19992;-75
2023/09/29 05:44:10;;;;;;;;;;;;;;;16.44;100.00;101389.75;4965935;28;20008;-75
2023/09/29 05:46:35;;;;;;;;;;;;;;;16.45;100.00;101378.66;4964968;28;19987;-74
2023/09/29 05:49:00;;;;;;;;;;;;;;;16.47;100.00;101364.91;4965925;28;19964;-75
2023/09/29 05:51:26;;;;;;;;;;;;;;;16.48;100.00;101364.69;4977381;28;20386;-75
2023/09/29 05:53:51;;;;;;;;;;;;;;;16.45;100.00;101350.78;4962711;28;19986;-76
2023/09/29 05:56:16;;;;;;;;;;;;;;;16.48;100.00;101339.47;4962749;28;19917;-77
2023/09/29 05:58:42;;;;;;;;;;;;;;;16.49;100.00;101331.16;4964771;28;20406;-75
2023/09/29 06:01:08;;;;;;;;;;;;;;;16.49;100.00;101333.84;4967410;28;19913;-75
2023/09/29 06:03:33;;;;;;;;;;;;;;;16.48;100.00;101336.78;4964600;28;20441;-74
2023/09/29 06:05:58;;;;;;;;;;;;;;;16.58;100.00;101317.31;4965963;28;20008;-75
2023/09/29 06:08:24;;;;;;;;;;;;;;;16.50;100.00;101304.91;4963422;28;19917;-74
2023/09/29 06:10:49;;;;;;;;;;;;;;;16.46;100.00;101299.13;4962479;28;20290;-75
2023/09/29 06:13:14;;;;;;;;;;;;;;;16.46;100.00;101268.47;4961566;28;20021;-75
2023/09/29 06:15:39;;;;;;;;;;;;;;;16.45;100.00;101243.28;4962487;28;20306;-75
2023/09/29 06:18:05;;;;;;;;;;;;;;;16.43;100.00;101225.63;4962337;28;19941;-74
2023/09/29 06:20:30;;;;;;;;;;;;;;;16.44;100.00;101209.16;4963469;28;19958;-75
2023/09/29 06:22:55;;;;;;;;;;;;;;;16.43;100.00;101195.84;4964242;28;19921;-76
2023/09/29 06:25:21;;;;;;;;;;;;;;;16.35;100.00;101167.22;4964211;28;19919;-75
2023/09/29 06:27:46;;;;;;;;;;;;;;;16.39;100.00;101154.88;4964661;28;19921;-76
2023/09/29 06:30:11;;;;;;;;;;;;;;;16.25;100.00;101123.63;4965848;28;19921;-76
2023/09/29 06:32:37;;;;;;;;;;;;;;;16.19;100.00;101113.72;4964344;28;20567;-74
2023/09/29 06:35:02;;;;;;;;;;;;;;;16.15;100.00;101061.13;4965565;28;19925;-75
2023/09/29 06:37:28;;;;;;;;;;;;;;;16.13;100.00;101009.91;4960189;28;20792;-74
2023/09/29 06:39:53;;;;;;;;;;;;;;;16.09;100.00;100980.88;4960817;28;20425;-74
2023/09/29 06:42:18;;;;;;;;;;;;;;;16.13;100.00;100936.03;4961523;28;20052;-76
2023/09/29 06:44:44;;;;;;;;;;;;;;;16.12;100.00;101448.53;4963610;28;19914;-75
2023/09/29 06:47:09;;;;;;;;;;;;;;;16.04;100.00;101445.06;4963491;28;19922;-75
2023/09/29 06:49:34;;;;;;;;;;;;;;;16.07;100.00;101446.50;4965636;28;19914;-75
2023/09/29 06:52:00;;;;;;;;;;;;;;;16.09;100.00;101459.81;4964745;28;19968;-74
2023/09/29 06:54:25;;;;;;;;;;;;;;;16.11;100.00;101491.00;4962532;28;20056;-75
2023/09/29 06:56:50;;;;;;;;;;;;;;;16.07;100.00;101519.56;4963241;28;20488;-75
2023/09/29 06:59:15;;;;;;;;;;;;;;;16.04;100.00;101528.09;4959943;28;20000;-74
2023/09/29 07:01:41;;;;;;;;;;;;;;;16.13;100.00;101545.72;4963976;28;19914;-76
2023/09/29 07:04:06;;;;;;;;;;;;;;;16.10;100.00;101556.19;4961145;28;20556;-75
2023/09/29 07:06:31;;;;;;;;;;;;;;;16.14;100.00;101587.16;4963446;28;19921;-75
2023/09/29 07:08:57;;;;;;;;;;;;;;;16.11;100.00;101607.38;4963718;28;19922;-75
2023/09/29 07:11:22;;;;;;;;;;;;;;;16.12;100.00;101628.00;4962559;28;19929;-75
2023/09/29 07:13:47;;;;;;;;;;;;;;;16.15;100.00;101635.66;4960830;28;20450;-75
2023/09/29 07:16:13;;;;;;;;;;;;;;;16.22;100.00;101646.44;4960610;28;19929;-75
2023/09/29 07:18:39;;;;;;;;;;;;;;;16.25;100.00;101664.97;4963802;28;19975;-75
2023/09/29 07:21:04;;;;;;;;;;;;;;;16.28;100.00;101675.34;4960260;28;19922;-75
2023/09/29 07:23:33;;;;;;;;;;;;;;;16.27;100.00;101681.84;4959954;28;20045;-74
2023/09/29 07:25:59;;;;;;;;;;;;;;;16.37;100.00;101690.28;4961576;28;20618;-74
2023/09/29 07:28:24;;;;;;;;;;;;;;;16.37;100.00;101700.31;4962636;28;19945;-75
2023/09/29 07:30:52;;;;;;;;;;;;;;;16.47;100.00;101703.38;4962164;28;20401;-75
2023/09/29 07:33:17;;;;;;;;;;;;;;;16.50;100.00;101705.66;4963670;28;20460;-75
2023/09/29 07:35:46;;;;;;;;;;;;;;;16.53;100.00;101716.06;4963449;28;20016;-75
2023/09/29 07:38:12;;;;;;;;;;;;;;;16.54;100.00;101712.28;4962679;28;19918;-75
2023/09/29 07:40:38;;;;;;;;;;;;;;;16.60;100.00;101719.53;4963234;28;19918;-74
2023/09/29 07:43:04;;;;;;;;;;;;;;;16.62;100.00;101713.91;4961903;28;20837;-75
2023/09/29 07:45:29;;;;;;;;;;;;;;;16.65;100.00;101713.50;4963901;28;20306;-74
2023/09/29 07:47:54;;;;;;;;;;;;;;;16.71;100.00;101726.97;4959422;28;19914;-74
2023/09/29 07:50:20;;;;;;;;;;;;;;;16.78;100.00;101724.28;4967889;28;19907;-74
2023/09/29 07:52:45;;;;;;;;;;;;;;;16.84;100.00;101739.66;4966396;28;19922;-75
2023/09/29 07:55:11;;;;;;;;;;;;;;;16.85;100.00;101733.19;4964604;28;20012;-75
2023/09/29 07:57:36;;;;;;;;;;;;;;;16.94;100.00;101737.28;4968486;28;19968;-75
2023/09/29 08:00:04;;;;;;;;;;;;;;;16.97;100.00;101738.72;4966161;28;19922;-75
2023/09/29 08:02:30;;;;;;;;;;;;;;;17.02;100.00;101733.50;4965827;28;20450;-74
2023/09/29 08:04:55;;;;;;;;;;;;;;;17.12;100.00;101738.41;4964935;28;19925;-74
2023/09/29 08:07:22;;;;;;;;;;;;;;;17.17;100.00;101733.16;4967045;28;19914;-75
2023/09/29 08:09:48;;;;;;;;;;;;;;;17.23;100.00;101734.16;4963496;28;19930;-75
2023/09/29 08:12:13;;;;;;;;;;;;;;;17.32;100.00;101728.22;4962843;28;20028;-76
2023/09/29 08:14:39;;;;;;;;;;;;;;;17.32;100.00;101722.81;4967930;28;20064;-75
2023/09/29 08:17:04;;;;;;;;;;;;;;;17.41;100.00;101715.22;4962457;28;20375;-76
2023/09/29 08:19:29;;;;;;;;;;;;;;;17.41;100.00;101717.94;4964147;28;19922;-75
2023/09/29 08:21:55;;;;;;;;;;;;;;;17.43;100.00;101712.28;4963439;28;19921;-75
2023/09/29 08:24:21;;;;;;;;;;;;;;;17.43;100.00;101710.41;4965917;28;19918;-75
2023/09/29 08:26:46;;;;;;;;;;;;;;;17.39;100.00;101701.91;4965223;28;19937;-75
2023/09/29 08:29:15;;;;;;;;;;;;;;;17.39;100.00;101704.59;4965135;28;20375;-75
2023/09/29 08:31:41;;;;;;;;;;;;;;;17.44;100.00;101692.25;4964169;28;19944;-75
2023/09/29 08:34:06;;;;;;;;;;;;;;;17.48;100.00;101688.88;4974593;28;19924;-75
2023/09/29 08:36:32;;;;;;;;;;;;;;;17.53;100.00;101682.75;4979139;28;19918;-75
2023/09/29 08:38:57;;;;;;;;;;;;;;;17.60;100.00;101689.78;4964869;28;19961;-75
2023/09/29 08:41:25;;;;;;;;;;;;;;;17.66;100.00;101679.09;4965462;28;20322;-74
2023/09/29 08:43:50;;;;;;;;;;;;;;;17.79;100.00;101679.81;4962633;28;19909;-75
2023/09/29 08:46:17;;;;;;;;;;;;;;;17.83;100.00;101674.75;4964878;28;19925;-75
2023/09/29 08:48:44;;;;;;;;;;;;;;;17.91;100.00;101674.47;4966888;28;20286;-75
2023/09/29 08:51:12;;;;;;;7.80;3.97;;;;;;;18.00;100.00;101669.53;4967944;28;20406;-75
2023/09/29 08:53:40;;;;;;;6.77;3.50;;;;;;;17.62;100.00;101583.78;4966478;28;20556;-75
2023/09/29 08:56:11;;;;;;;7.10;3.10;;;;;;;18.23;100.00;101660.69;4965854;28;20437;-75
2023/09/29 08:58:37;;;;;;;8.97;3.77;;;;;;;18.05;100.00;101612.66;4962585;28;20561;-75
2023/09/29 09:01:03;;;;;;;7.80;3.70;;;;;;;17.84;100.00;101582.25;4963825;28;20953;-75
2023/09/29 09:03:28;;;;;;;10.13;3.80;;;;;;;17.67;100.00;101529.63;4961194;28;20441;-76
2023/09/29 09:05:55;;;;;;;8.03;3.60;;;;;;;18.41;100.00;101643.50;4966758;28;20484;-76
2023/09/29 09:08:23;;;;;;;7.67;3.83;;;;;;;18.52;100.00;101635.38;4964712;28;20297;-74
2023/09/29 09:10:50;;;;;;;9.40;3.63;;;;;;;18.50;100.00;101623.09;4963919;28;20532;-75
2023/09/29 09:13:20;;;;;;;12.50;4.10;;;;;;;18.52;100.00;101631.84;4961576;28;20529;-76
2023/09/29 09:15:58;;;;;;;7.40;4.20;;;;;;;18.55;100.00;101630.56;4957961;28;20445;-76
2023/09/29 09:18:27;;;;;;;11.27;4.20;;;;;;;18.64;100.00;101621.00;4962770;28;20465;-75
2023/09/29 09:20:55;;;;;;;8.63;3.70;;;;;;;18.69;100.00;101602.94;4963527;28;20871;-75
2023/09/29 09:23:21;;;;;;;8.70;3.73;;;;;;;18.78;100.00;101608.91;4957019;28;20449;-76
2023/09/29 09:25:47;;;;;;;9.50;3.93;;;;;;;18.88;100.00;101611.84;4965141;28;20546;-75
2023/09/29 09:28:16;;;;;;;9.23;4.17;;;;;;;18.72;100.00;101558.16;4964860;28;20234;-75
2023/09/29 09:30:42;;;;;;;6.57;3.60;;;;;;;19.00;100.00;101598.25;4965478;28;20186;-76
2023/09/29 09:33:25;;;;;;;8.47;3.63;;;;;;;18.63;100.00;101530.53;4963026;28;20430;-76
2023/09/29 09:35:51;;;;;;;6.30;3.77;;;;;;;19.13;100.00;101591.75;4959443;28;20178;-75
2023/09/29 09:38:17;;;;;;;7.00;3.20;;;;;;;19.16;100.00;101577.69;4961543;28;20484;-74
2023/09/29 09:40:47;;;;;;;7.70;3.87;;;;;;;19.18;100.00;101570.94;4960120;28;20674;-75
2023/09/29 09:43:13;;;;;;;7.40;4.23;;;;;;;19.27;100.00;101560.53;4963046;28;20201;-75
2023/09/29 09:45:40;;;;;;;7.63;3.60;;;;;;;19.25;100.00;101556.41;4967186;28;20438;-75
2023/09/29 09:48:10;;;;;;;7.33;3.13;;;;;;;19.02;100.00;101481.94;4961327;28;20214;-74
2023/09/29 09:50:40;;;;;;;6.93;3.53;;;;;;;19.48;100.00;101529.13;4965395;28;20453;-76
2023/09/29 09:53:09;;;;;;;7.83;4.10;;;;;;;19.18;100.00;101505.69;4959113;28;20965;-75
2023/09/29 09:55:42;;;;;;;9.13;3.27;;;;;;;19.48;100.00;101544.63;4954447;28;20812;-76
2023/09/29 09:58:12;;;;;;;7.35;3.60;;;;;;;19.56;100.00;101514.34;4964879;28;20469;-75
2023/09/29 10:00:43;;;;;;;7.77;3.50;;;;;;;19.18;100.00;101470.34;4963782;28;20536;-75
2023/09/29 10:03:12;;;;;;;9.17;3.43;;;;;;;19.55;100.00;101508.03;4963258;28;20456;-75
2023/09/29 10:05:41;;;;;;;7.40;3.27;;;;;;;19.27;100.00;101461.81;4961924;28;20532;-75
2023/09/29 10:08:09;;;;;;;9.10;3.07;;;;;;;19.27;100.00;101440.88;4962202;28;20492;-74
2023/09/29 10:10:38;;;;;;;7.80;3.30;;;;;;;19.63;100.00;101496.78;4960866;28;20930;-74
2023/09/29 10:13:15;;;;;;;6.97;3.13;;;;;;;19.57;100.00;101467.00;4961430;28;20557;-75
2023/09/29 10:15:41;;;;;;;8.20;3.13;;;;;;;19.95;100.00;101479.13;4964718;28;20507;-75
2023/09/29 10:18:21;;;;;;;6.55;3.00;;;;;;;20.07;100.00;101469.81;4956805;28;20477;-75
2023/09/29 10:20:58;;;;;;;9.60;3.20;;;;;;;20.26;100.00;101450.53;4961404;28;20481;-75
2023/09/29 10:23:25;;;;;;;6.53;3.20;;;;;;;20.18;100.00;101412.81;4959663;28;20472;-75
2023/09/29 10:26:02;;;;;;;10.77;3.40;;;;;;;20.34;100.00;101422.88;4977050;28;20449;-74
2023/09/29 10:28:35;;;;;;;5.23;3.13;;;;;;;20.26;100.00;101385.97;4960307;28;20903;-75
2023/09/29 10:31:09;;;;;;;7.43;3.30;;;;;;;20.57;100.00;101375.53;4963106;28;20472;-74
2023/09/29 10:33:52;;;;;;;6.73;3.27;;;;;;;20.27;100.00;101324.94;4964043;28;20415;-76
2023/09/29 10:36:26;;;;;;;8.37;3.60;;;;;;;20.63;100.00;101352.72;4962618;28;20459;-75
2023/09/29 10:38:53;;;;;;;5.97;2.87;;;;;;;20.15;100.00;101269.78;4964428;28;20457;-75
2023/09/29 10:41:19;;;;;;;;;;;;;;;20.63;100.00;101341.81;4960126;28;20433;-75
2023/09/29 10:43:49;;;;;;;7.67;3.13;;;;;;;20.03;100.00;101258.19;4962427;28;20968;-74
2023/09/29 10:46:18;;;;;;;5.23;2.67;;;;;;;20.61;100.00;101324.06;4963702;28;20250;-76
2023/09/29 10:48:48;;;;;;;7.00;3.43;;;;;;;20.48;100.00;101322.50;4965459;28;20620;-75
2023/09/29 10:51:40;;;;;;;7.60;2.77;;;;;;;20.39;100.00;101297.59;4962578;28;20469;-77
2023/09/29 10:54:07;;;;;;;10.20;2.93;;;;;;;20.25;100.00;101285.41;4964718;28;20981;-75
2023/09/29 10:56:34;;;;;;;5.73;2.43;;;;;;;20.46;100.00;101347.28;4965067;28;20475;-75
2023/09/29 10:59:03;;;;;;;4.43;2.20;;;;;;;20.21;100.00;101325.16;4962607;28;20458;-75
2023/09/29 11:01:33;;;;;;;4.40;2.13;;;;;;;19.95;100.00;101294.00;4964779;28;20440;-76
2023/09/29 11:04:01;;;;;;;8.10;2.33;;;;;;;19.97;100.00;101338.16;4964749;28;20818;-76
2023/09/29 11:06:27;;;;;;;6.10;2.47;;;;;;;19.23;100.00;101259.38;4960327;28;20500;-76
2023/09/29 11:08:55;;;;;;;5.10;2.37;;;;;;;19.74;100.00;101364.47;4964199;28;20768;-76
2023/09/29 11:11:21;;;;;;;6.03;2.40;;;;;;;19.59;100.00;101354.13;4977928;28;20465;-76
2023/09/29 11:13:54;;;;;;;5.43;2.80;;;;;;;19.30;100.00;101317.16;4964074;28;20855;-75
2023/09/29 11:16:19;;;;;;;4.37;1.90;;;;;;;19.58;100.00;101363.34;4961538;28;20187;-76
2023/09/29 11:18:45;;;;;;;7.50;2.63;;;;;;;18.04;100.00;101123.25;5027957;23;21523;-77
2023/09/29 11:21:11;;;;;;;6.93;2.70;;;;;;;18.81;100.00;101265.16;4964857;28;20698;-76
2023/09/29 11:23:43;;;;;;;5.63;2.20;;;;;;;19.93;100.00;101430.41;4970274;28;20198;-76
2023/09/29 11:26:11;;;;;;;4.23;2.57;;;;;;;17.59;100.00;101063.44;4979251;28;20433;-77
2023/09/29 11:28:44;;;;;;;5.53;1.90;;;;;;;18.38;100.00;101180.38;4974265;28;20437;-77
2023/09/29 11:31:15;;;;;;;7.37;2.70;;;;;;;19.19;100.00;101318.88;4974102;28;20816;-75
2023/09/29 11:33:42;;;;;;;6.90;2.53;;;;;;;19.19;100.00;101288.97;4972184;28;20982;-75
2023/09/29 11:36:21;;;;;;;8.27;2.40;;;;;;;19.89;100.00;101415.59;4973038;28;20436;-76
2023/09/29 11:38:47;;;;;;;4.83;2.30;;;;;;;18.69;100.00;101257.84;4971957;28;20445;-76
2023/09/29 11:41:15;;;;;;;7.97;2.60;;;;;;;19.97;100.00;101433.44;4971615;28;20816;-77
2023/09/29 11:43:41;;;;;;;5.30;2.37;;;;;;;17.87;100.00;101135.94;4971697;28;20215;-76
2023/09/29 11:46:07;;;;;;;5.00;2.43;;;;;;;18.99;100.00;101308.44;4972099;28;20442;-76
2023/09/29 11:48:33;;;;;;;5.20;2.13;;;;;;;18.18;100.00;101205.25;4971708;28;20413;-75
2023/09/29 11:50:59;;;;;;;6.10;2.60;;;;;;;19.81;100.00;101433.16;4972296;28;20215;-76
2023/09/29 11:53:25;;;;;;;5.73;2.70;;;;;;;18.81;100.00;101293.16;4969941;28;20210;-76
2023/09/29 11:55:51;;;;;;;6.80;2.00;;;;;;;17.42;100.00;101070.69;4970993;28;20190;-76
2023/09/29 11:58:17;;;;;;;6.37;3.10;;;;;;;19.46;100.00;101408.84;4986267;28;20452;-76
2023/09/29 12:00:42;;;;;;;7.30;2.50;;;;;;;19.59;100.00;101438.47;4972790;28;20433;-75
2023/09/29 12:03:08;;;;;;;4.90;2.20;;;;;;;19.49;100.00;101426.56;4970773;28;20321;-76
2023/09/29 12:05:35;;;;;;;6.87;2.67;;;;;;;19.66;100.00;101470.19;4971633;28;20274;-75